sensor_id;sensor_type;location;lat;lon;timestamp;pressure;altitude;pressure_sealevel;temperature;humidity
33155;BME280;19511;42.682;23.332;2023-07-22T00:00:52;95071.53;;;24.35;100.00
33155;BME280;19511;42.682;23.332;2023-07-22T00:03:20;95085.69;;;24.40;100.00
33155;BME280;19511;42.682;23.332;2023-07-22T00:05:45;95073.59;;;24.34;100.00
33155;BME280;19511;42.682;23.332;2023-07-22T00:08:11;95089.00;;;24.33;100.00
33155;BME280;19511;42.682;23.332;2023-07-22T00:10:43;95096.44;;;24.31;100.00
33155;BME280;19511;42.682;23.332;2023-07-22T00:13:14;95088.41;;;24.18;100.00
33155;BME280;19511;42.682;23.332;2023-07-22T00:15:40;95109.38;;;24.11;100.00
33155;BME280;19511;42.682;23.332;2023-07-22T00:18:15;95084.19;;;24.07;100.00
33155;BME280;19511;42.682;23.332;2023-07-22T00:20:41;95080.78;;;23.98;100.00
33155;BME280;19511;42.682;23.332;2023-07-22T00:23:07;95086.66;;;23.94;100.00
33155;BME280;19511;42.682;23.332;2023-07-22T00:25:32;95086.00;;;23.78;100.00
33155;BME280;19511;42.682;23.332;2023-07-22T00:27:58;95087.56;;;23.79;100.00
33155;BME280;19511;42.682;23.332;2023-07-22T00:30:23;95094.72;;;23.80;100.00
33155;BME280;19511;42.682;23.332;2023-07-22T00:32:53;95092.72;;;23.87;100.00
33155;BME280;19511;42.682;23.332;2023-07-22T00:35:19;95100.22;;;23.90;100.00
33155;BME280;19511;42.682;23.332;2023-07-22T00:37:47;95091.03;;;23.95;100.00
33155;BME280;19511;42.682;23.332;2023-07-22T00:40:13;95097.84;;;23.83;100.00
33155;BME280;19511;42.682;23.332;2023-07-22T00:42:39;95003.31;;;23.20;100.00
33155;BME280;19511;42.682;23.332;2023-07-22T00:45:05;95070.22;;;23.40;100.00
33155;BME280;19511;42.682;23.332;2023-07-22T00:47:33;95107.38;;;23.59;100.00
33155;BME280;19511;42.682;23.332;2023-07-22T00:50:00;95095.19;;;23.47;100.00
33155;BME280;19511;42.682;23.332;2023-07-22T00:52:26;95099.25;;;23.40;100.00
33155;BME280;19511;42.682;23.332;2023-07-22T00:54:52;95111.91;;;23.51;100.00
33155;BME280;19511;42.682;23.332;2023-07-22T00:57:18;95113.06;;;23.38;100.00
33155;BME280;19511;42.682;23.332;2023-07-22T00:59:44;95059.84;;;23.05;100.00
33155;BME280;19511;42.682;23.332;2023-07-22T01:02:10;95046.66;;;22.96;100.00
33155;BME280;19511;42.682;23.332;2023-07-22T01:04:36;95107.00;;;23.25;100.00
33155;BME280;19511;42.682;23.332;2023-07-22T01:07:07;95028.22;;;22.74;100.00
33155;BME280;19511;42.682;23.332;2023-07-22T01:09:39;95036.38;;;22.72;100.00
33155;BME280;19511;42.682;23.332;2023-07-22T01:12:06;95032.56;;;22.75;100.00
33155;BME280;19511;42.682;23.332;2023-07-22T01:14:35;95085.84;;;23.14;100.00
33155;BME280;19511;42.682;23.332;2023-07-22T01:17:06;95083.72;;;23.09;100.00
33155;BME280;19511;42.682;23.332;2023-07-22T01:19:35;95061.03;;;22.98;100.00
33155;BME280;19511;42.682;23.332;2023-07-22T01:22:03;95097.22;;;23.20;100.00
33155;BME280;19511;42.682;23.332;2023-07-22T01:24:48;95081.97;;;22.91;100.00
33155;BME280;19511;42.682;23.332;2023-07-22T01:27:14;95096.44;;;22.78;100.00
33155;BME280;19511;42.682;23.332;2023-07-22T01:29:43;95074.03;;;22.69;100.00
33155;BME280;19511;42.682;23.332;2023-07-22T01:32:09;95083.19;;;22.64;100.00
33155;BME280;19511;42.682;23.332;2023-07-22T01:34:38;95082.59;;;22.60;100.00
33155;BME280;19511;42.682;23.332;2023-07-22T01:37:08;95081.75;;;22.54;100.00
33155;BME280;19511;42.682;23.332;2023-07-22T01:39:35;95088.88;;;22.49;100.00
33155;BME280;19511;42.682;23.332;2023-07-22T01:42:01;95087.53;;;22.44;100.00
33155;BME280;19511;42.682;23.332;2023-07-22T01:44:29;95078.13;;;22.32;100.00
33155;BME280;19511;42.682;23.332;2023-07-22T01:46:55;95080.16;;;22.32;100.00
33155;BME280;19511;42.682;23.332;2023-07-22T01:49:23;95078.03;;;22.42;100.00
33155;BME280;19511;42.682;23.332;2023-07-22T01:51:51;95070.63;;;22.44;100.00
33155;BME280;19511;42.682;23.332;2023-07-22T01:54:18;95026.59;;;22.11;100.00
33155;BME280;19511;42.682;23.332;2023-07-22T01:56:46;95070.06;;;22.40;100.00
33155;BME280;19511;42.682;23.332;2023-07-22T01:59:16;95069.06;;;22.43;100.00
33155;BME280;19511;42.682;23.332;2023-07-22T02:01:45;95061.31;;;22.38;100.00
33155;BME280;19511;42.682;23.332;2023-07-22T02:04:13;95015.88;;;22.15;100.00
33155;BME280;19511;42.682;23.332;2023-07-22T02:06:38;95061.69;;;22.66;100.00
33155;BME280;19511;42.682;23.332;2023-07-22T02:09:06;95065.97;;;22.82;100.00
33155;BME280;19511;42.682;23.332;2023-07-22T02:11:35;95056.59;;;22.91;100.00
33155;BME280;19511;42.682;23.332;2023-07-22T02:14:01;95062.38;;;23.03;100.00
33155;BME280;19511;42.682;23.332;2023-07-22T02:16:26;95065.63;;;23.16;100.00
33155;BME280;19511;42.682;23.332;2023-07-22T02:18:51;95066.25;;;23.26;100.00
33155;BME280;19511;42.682;23.332;2023-07-22T02:21:21;95066.19;;;23.20;100.00
33155;BME280;19511;42.682;23.332;2023-07-22T02:23:47;95057.63;;;23.14;100.00
33155;BME280;19511;42.682;23.332;2023-07-22T02:26:12;95079.91;;;23.33;100.00
33155;BME280;19511;42.682;23.332;2023-07-22T02:28:37;95079.75;;;23.42;100.00
33155;BME280;19511;42.682;23.332;2023-07-22T02:31:03;95086.44;;;23.19;100.00
33155;BME280;19511;42.682;23.332;2023-07-22T02:33:32;95029.75;;;22.55;100.00
33155;BME280;19511;42.682;23.332;2023-07-22T02:35:58;95084.09;;;22.55;100.00
33155;BME280;19511;42.682;23.332;2023-07-22T02:38:23;95093.97;;;22.45;100.00
33155;BME280;19511;42.682;23.332;2023-07-22T02:40:49;95082.97;;;22.32;100.00
33155;BME280;19511;42.682;23.332;2023-07-22T02:43:14;95084.25;;;22.31;100.00
33155;BME280;19511;42.682;23.332;2023-07-22T02:45:40;95086.59;;;22.17;100.00
33155;BME280;19511;42.682;23.332;2023-07-22T02:48:06;95077.31;;;21.96;100.00
33155;BME280;19511;42.682;23.332;2023-07-22T02:50:31;95037.56;;;21.59;100.00
33155;BME280;19511;42.682;23.332;2023-07-22T02:53:01;95090.34;;;21.94;100.00
33155;BME280;19511;42.682;23.332;2023-07-22T02:55:26;95075.13;;;21.71;100.00
33155;BME280;19511;42.682;23.332;2023-07-22T02:57:52;95031.53;;;21.36;100.00
33155;BME280;19511;42.682;23.332;2023-07-22T03:00:19;95096.38;;;21.72;100.00
33155;BME280;19511;42.682;23.332;2023-07-22T03:02:55;95051.91;;;21.46;100.00
33155;BME280;19511;42.682;23.332;2023-07-22T03:05:27;95083.47;;;21.65;100.00
33155;BME280;19511;42.682;23.332;2023-07-22T03:07:53;95086.69;;;21.58;100.00
33155;BME280;19511;42.682;23.332;2023-07-22T03:10:19;95085.41;;;21.59;100.00
33155;BME280;19511;42.682;23.332;2023-07-22T03:12:44;95066.19;;;21.42;100.00
33155;BME280;19511;42.682;23.332;2023-07-22T03:15:10;95024.72;;;21.28;100.00
33155;BME280;19511;42.682;23.332;2023-07-22T03:17:38;95099.19;;;21.72;100.00
33155;BME280;19511;42.682;23.332;2023-07-22T03:20:04;95102.41;;;21.79;100.00
33155;BME280;19511;42.682;23.332;2023-07-22T03:22:43;95035.22;;;21.27;100.00
33155;BME280;19511;42.682;23.332;2023-07-22T03:25:14;95098.81;;;21.64;100.00
33155;BME280;19511;42.682;23.332;2023-07-22T03:27:42;95057.13;;;21.38;100.00
33155;BME280;19511;42.682;23.332;2023-07-22T03:30:13;95110.06;;;21.64;100.00
33155;BME280;19511;42.682;23.332;2023-07-22T03:32:46;95113.47;;;21.68;100.00
33155;BME280;19511;42.682;23.332;2023-07-22T03:35:16;95108.22;;;21.61;100.00
33155;BME280;19511;42.682;23.332;2023-07-22T03:37:42;95121.31;;;21.64;100.00
33155;BME280;19511;42.682;23.332;2023-07-22T03:40:12;95128.78;;;21.67;100.00
33155;BME280;19511;42.682;23.332;2023-07-22T03:42:51;95131.91;;;21.69;100.00
33155;BME280;19511;42.682;23.332;2023-07-22T03:45:17;95115.88;;;21.60;100.00
33155;BME280;19511;42.682;23.332;2023-07-22T03:47:50;95083.34;;;21.44;100.00
33155;BME280;19511;42.682;23.332;2023-07-22T03:50:16;95139.28;;;21.81;100.00
33155;BME280;19511;42.682;23.332;2023-07-22T03:52:41;95127.34;;;21.87;100.00
33155;BME280;19511;42.682;23.332;2023-07-22T03:55:07;95138.13;;;22.03;100.00
33155;BME280;19511;42.682;23.332;2023-07-22T03:57:32;95104.91;;;21.77;100.00
33155;BME280;19511;42.682;23.332;2023-07-22T03:59:58;95088.22;;;21.74;100.00
33155;BME280;19511;42.682;23.332;2023-07-22T04:02:24;95140.63;;;22.16;100.00
33155;BME280;19511;42.682;23.332;2023-07-22T04:04:51;95095.88;;;22.03;100.00
33155;BME280;19511;42.682;23.332;2023-07-22T04:07:16;95088.84;;;22.13;100.00
33155;BME280;19511;42.682;23.332;2023-07-22T04:09:42;95155.69;;;22.63;100.00
33155;BME280;19511;42.682;23.332;2023-07-22T04:12:08;95154.25;;;22.68;100.00
33155;BME280;19511;42.682;23.332;2023-07-22T04:14:34;95135.47;;;22.65;100.00
33155;BME280;19511;42.682;23.332;2023-07-22T04:16:59;95144.69;;;22.80;100.00
33155;BME280;19511;42.682;23.332;2023-07-22T04:19:25;95153.06;;;22.95;100.00
33155;BME280;19511;42.682;23.332;2023-07-22T04:21:50;95148.06;;;23.05;100.00
33155;BME280;19511;42.682;23.332;2023-07-22T04:24:16;95143.69;;;23.04;100.00
33155;BME280;19511;42.682;23.332;2023-07-22T04:26:42;95145.94;;;23.00;100.00
33155;BME280;19511;42.682;23.332;2023-07-22T04:29:08;95147.75;;;23.03;100.00
33155;BME280;19511;42.682;23.332;2023-07-22T04:31:33;95149.88;;;23.08;100.00
33155;BME280;19511;42.682;23.332;2023-07-22T04:34:03;95166.72;;;23.18;100.00
33155;BME280;19511;42.682;23.332;2023-07-22T04:36:28;95163.44;;;23.25;100.00
33155;BME280;19511;42.682;23.332;2023-07-22T04:38:54;95146.16;;;23.17;100.00
33155;BME280;19511;42.682;23.332;2023-07-22T04:41:19;95163.56;;;23.36;100.00
33155;BME280;19511;42.682;23.332;2023-07-22T04:43:44;95166.56;;;23.27;100.00
33155;BME280;19511;42.682;23.332;2023-07-22T04:46:10;95164.03;;;23.29;100.00
33155;BME280;19511;42.682;23.332;2023-07-22T04:48:35;95166.78;;;23.44;100.00
33155;BME280;19511;42.682;23.332;2023-07-22T04:51:02;95161.59;;;23.63;100.00
33155;BME280;19511;42.682;23.332;2023-07-22T04:53:27;95151.09;;;23.69;100.00
33155;BME280;19511;42.682;23.332;2023-07-22T04:55:53;95157.47;;;23.64;100.00
33155;BME280;19511;42.682;23.332;2023-07-22T04:58:20;95100.56;;;23.19;100.00
33155;BME280;19511;42.682;23.332;2023-07-22T05:00:46;95167.69;;;23.82;100.00
33155;BME280;19511;42.682;23.332;2023-07-22T05:03:11;95172.50;;;24.02;100.00
33155;BME280;19511;42.682;23.332;2023-07-22T05:05:37;95171.41;;;23.94;100.00
33155;BME280;19511;42.682;23.332;2023-07-22T05:08:03;95183.25;;;23.98;100.00
33155;BME280;19511;42.682;23.332;2023-07-22T05:10:29;95180.25;;;24.07;100.00
33155;BME280;19511;42.682;23.332;2023-07-22T05:12:55;95177.81;;;24.21;100.00
33155;BME280;19511;42.682;23.332;2023-07-22T05:15:22;95138.78;;;23.93;100.00
33155;BME280;19511;42.682;23.332;2023-07-22T05:17:47;95182.44;;;24.24;100.00
33155;BME280;19511;42.682;23.332;2023-07-22T05:20:13;95181.66;;;24.50;100.00
33155;BME280;19511;42.682;23.332;2023-07-22T05:22:42;95180.41;;;24.56;100.00
33155;BME280;19511;42.682;23.332;2023-07-22T05:25:08;95180.38;;;24.51;100.00
33155;BME280;19511;42.682;23.332;2023-07-22T05:27:42;95181.41;;;24.53;100.00
33155;BME280;19511;42.682;23.332;2023-07-22T05:30:10;95176.28;;;24.57;100.00
33155;BME280;19511;42.682;23.332;2023-07-22T05:32:39;95172.25;;;24.64;100.00
33155;BME280;19511;42.682;23.332;2023-07-22T05:35:05;95176.19;;;24.78;100.00
33155;BME280;19511;42.682;23.332;2023-07-22T05:37:31;95185.72;;;24.75;100.00
33155;BME280;19511;42.682;23.332;2023-07-22T05:39:56;95185.72;;;24.75;100.00
33155;BME280;19511;42.682;23.332;2023-07-22T05:42:22;95182.56;;;24.67;100.00
33155;BME280;19511;42.682;23.332;2023-07-22T05:44:48;95133.66;;;24.61;100.00
33155;BME280;19511;42.682;23.332;2023-07-22T05:47:14;95187.88;;;24.97;100.00
33155;BME280;19511;42.682;23.332;2023-07-22T05:49:39;95183.72;;;24.87;100.00
33155;BME280;19511;42.682;23.332;2023-07-22T05:52:05;95191.75;;;25.00;100.00
33155;BME280;19511;42.682;23.332;2023-07-22T05:54:31;95179.56;;;24.82;100.00
33155;BME280;19511;42.682;23.332;2023-07-22T05:56:59;95184.06;;;25.00;100.00
33155;BME280;19511;42.682;23.332;2023-07-22T05:59:25;95175.81;;;25.02;100.00
33155;BME280;19511;42.682;23.332;2023-07-22T06:01:50;95174.78;;;25.00;100.00
33155;BME280;19511;42.682;23.332;2023-07-22T06:04:17;95190.56;;;25.18;100.00
33155;BME280;19511;42.682;23.332;2023-07-22T06:06:42;95139.19;;;24.82;100.00
33155;BME280;19511;42.682;23.332;2023-07-22T06:09:11;95197.75;;;25.13;100.00
33155;BME280;19511;42.682;23.332;2023-07-22T06:11:36;95211.53;;;25.37;100.00
33155;BME280;19511;42.682;23.332;2023-07-22T06:14:02;95159.41;;;25.18;100.00
33155;BME280;19511;42.682;23.332;2023-07-22T06:16:27;95207.72;;;25.52;100.00
33155;BME280;19511;42.682;23.332;2023-07-22T06:18:53;95215.53;;;25.74;100.00
33155;BME280;19511;42.682;23.332;2023-07-22T06:21:18;95159.06;;;25.48;100.00
33155;BME280;19511;42.682;23.332;2023-07-22T06:23:43;95159.75;;;25.25;100.00
33155;BME280;19511;42.682;23.332;2023-07-22T06:26:09;95224.25;;;25.65;100.00
33155;BME280;19511;42.682;23.332;2023-07-22T06:28:34;95220.88;;;25.61;100.00
33155;BME280;19511;42.682;23.332;2023-07-22T06:31:00;95178.09;;;25.41;100.00
33155;BME280;19511;42.682;23.332;2023-07-22T06:33:25;95196.19;;;25.72;100.00
33155;BME280;19511;42.682;23.332;2023-07-22T06:35:50;95207.84;;;25.86;100.00
33155;BME280;19511;42.682;23.332;2023-07-22T06:38:16;95224.31;;;25.82;100.00
33155;BME280;19511;42.682;23.332;2023-07-22T06:40:41;95235.91;;;25.84;100.00
33155;BME280;19511;42.682;23.332;2023-07-22T06:43:07;95231.78;;;25.79;100.00
33155;BME280;19511;42.682;23.332;2023-07-22T06:45:32;95228.94;;;25.79;100.00
33155;BME280;19511;42.682;23.332;2023-07-22T06:47:58;95235.22;;;26.12;100.00
33155;BME280;19511;42.682;23.332;2023-07-22T06:50:23;95224.38;;;26.04;100.00
33155;BME280;19511;42.682;23.332;2023-07-22T06:52:49;95216.41;;;26.08;100.00
33155;BME280;19511;42.682;23.332;2023-07-22T06:55:14;95230.63;;;26.20;100.00
33155;BME280;19511;42.682;23.332;2023-07-22T06:57:44;95187.31;;;26.25;100.00
33155;BME280;19511;42.682;23.332;2023-07-22T07:00:10;95213.34;;;26.63;100.00
33155;BME280;19511;42.682;23.332;2023-07-22T07:02:36;95209.25;;;26.76;100.00
33155;BME280;19511;42.682;23.332;2023-07-22T07:05:08;95208.22;;;26.79;100.00
33155;BME280;19511;42.682;23.332;2023-07-22T07:07:37;95217.75;;;26.76;100.00
33155;BME280;19511;42.682;23.332;2023-07-22T07:10:03;95160.75;;;26.28;100.00
33155;BME280;19511;42.682;23.332;2023-07-22T07:12:28;95214.38;;;26.83;100.00
33155;BME280;19511;42.682;23.332;2023-07-22T07:14:54;95209.75;;;26.85;100.00
33155;BME280;19511;42.682;23.332;2023-07-22T07:17:19;95197.09;;;26.98;100.00
33155;BME280;19511;42.682;23.332;2023-07-22T07:19:44;95196.00;;;27.24;100.00
33155;BME280;19511;42.682;23.332;2023-07-22T07:22:10;95157.53;;;27.17;100.00
33155;BME280;19511;42.682;23.332;2023-07-22T07:24:35;95196.94;;;27.49;100.00
33155;BME280;19511;42.682;23.332;2023-07-22T07:27:01;95191.03;;;27.35;100.00
33155;BME280;19511;42.682;23.332;2023-07-22T07:29:27;95187.72;;;27.31;100.00
33155;BME280;19511;42.682;23.332;2023-07-22T07:31:52;95177.63;;;27.42;100.00
33155;BME280;19511;42.682;23.332;2023-07-22T07:34:18;95188.09;;;27.64;100.00
33155;BME280;19511;42.682;23.332;2023-07-22T07:36:43;95146.41;;;27.30;100.00
33155;BME280;19511;42.682;23.332;2023-07-22T07:39:09;95181.09;;;27.70;100.00
